Time;durP1;ratioP1;P1;durP2;ratioP2;P2;SDS_P1;SDS_P2;PMS_P1;PMS_P2;Temp;Humidity;BMP_temperature;BMP_pressure;BME280_temperature;BME280_humidity;BME280_pressure;Samples;Min_cycle;Max_cycle;Signal;HPM_P1;HPM_P2
2021/11/12 00:12:57;;;;;;;11.98;1.67;;;;;;;9.23;83.65;101623.84;5056592;28;20060;-81
2021/11/12 00:15:23;;;;;;;13.23;1.60;;;;;;;9.23;84.28;101634.59;5059672;28;20052;-81
2021/11/12 00:17:48;;;;;;;12.20;2.00;;;;;;;9.17;84.98;101630.72;5042360;28;20032;-81
2021/11/12 00:20:14;;;;;;;10.50;1.88;;;;;;;9.14;85.25;101631.09;5060328;28;20091;-80
2021/11/12 00:22:39;;;;;;;10.73;1.58;;;;;;;9.11;85.36;101640.31;5059762;28;20084;-80
2021/11/12 00:25:05;;;;;;;11.07;1.92;;;;;;;9.01;84.77;101636.13;5064847;28;20032;-81
2021/11/12 00:27:34;;;;;;;13.32;1.50;;;;;;;9.07;85.05;101648.84;5060367;28;20033;-81
2021/11/12 00:30:20;;;;;;;16.75;1.67;;;;;;;9.00;84.66;101635.25;5060595;28;20085;-81
2021/11/12 00:38:06;;;;;;;11.95;1.60;;;;;;;9.07;84.20;101648.84;5056075;28;20083;-81
2021/11/12 00:40:46;;;;;;;12.87;1.53;;;;;;;9.04;84.67;101635.75;5058662;28;20452;-80
2021/11/12 00:43:30;;;;;;;11.88;1.38;;;;;;;9.03;84.78;101634.94;5057843;28;20335;-80
2021/11/12 00:48:48;;;;;;;11.82;1.58;;;;;;;9.08;85.05;101642.50;5056683;28;20103;-81
2021/11/12 00:51:40;;;;;;;8.38;1.70;;;;;;;9.07;84.92;101625.56;5056885;28;20025;-80
2021/11/12 00:54:06;;;;;;;11.00;1.63;;;;;;;9.09;84.42;101626.19;5058523;28;20108;-80
2021/11/12 00:56:32;;;;;;;11.95;1.48;;;;;;;9.14;84.06;101621.19;5055881;28;20025;-81
2021/11/12 00:59:01;;;;;;;12.50;1.65;;;;;;;9.16;84.10;101623.69;5056649;28;20067;-80
2021/11/12 01:01:30;;;;;;;12.43;1.60;;;;;;;9.05;84.57;101610.63;5056724;28;20041;-81
2021/11/12 01:03:56;;;;;;;11.80;2.03;;;;;;;9.10;84.72;101624.34;5064010;28;20497;-81
2021/11/12 01:06:22;;;;;;;10.18;1.50;;;;;;;9.11;85.22;101626.06;5056243;28;20355;-80
2021/11/12 01:08:48;;;;;;;11.25;1.70;;;;;;;9.01;85.14;101614.66;5060546;28;20029;-81
2021/11/12 01:11:15;;;;;;;9.60;1.90;;;;;;;9.10;85.33;101618.97;5065935;28;20048;-81
2021/11/12 01:13:41;;;;;;;7.50;1.15;;;;;;;9.13;85.16;101611.44;5068331;28;20039;-81
2021/11/12 01:16:08;;;;;;;12.13;1.75;;;;;;;9.21;85.61;101617.81;5058045;28;20045;-81
2021/11/12 01:18:36;;;;;;;14.50;1.90;;;;;;;9.17;87.34;101604.72;5057490;28;20037;-80
2021/11/12 01:21:04;;;;;;;13.23;1.75;;;;;;;9.23;86.65;101608.56;5053701;28;20103;-81
2021/11/12 01:23:30;;;;;;;10.90;1.58;;;;;;;9.19;87.26;101615.28;5058638;28;20033;-81
2021/11/12 01:25:55;;;;;;;12.10;1.60;;;;;;;9.16;86.33;101612.94;5057636;28;20039;-81
2021/11/12 01:28:20;;;;;;;9.00;1.58;;;;;;;9.18;85.81;101619.00;5058826;28;20025;-80
2021/11/12 01:30:46;;;;;;;9.07;1.48;;;;;;;9.11;85.82;101605.41;5041755;28;20049;-80
2021/11/12 01:33:12;;;;;;;10.98;1.63;;;;;;;9.21;85.76;101615.13;5067817;28;20390;-81
2021/11/12 01:35:37;;;;;;;14.70;1.98;;;;;;;9.19;85.86;101628.72;5069498;28;20051;-81
2021/11/12 01:38:03;;;;;;;10.25;1.45;;;;;;;9.18;85.83;101633.25;5071986;28;20068;-81
2021/11/12 01:40:29;;;;;;;8.93;1.10;;;;;;;9.02;86.25;101619.84;5058824;28;20029;-81
2021/11/12 01:42:58;;;;;;;14.43;1.55;;;;;;;9.10;86.12;101635.09;5059709;28;20025;-81
2021/11/12 01:51:04;;;;;;;7.93;1.25;;;;;;;8.83;86.11;101629.06;5052222;28;20029;-81
2021/11/12 01:53:37;;;;;;;11.23;1.50;;;;;;;8.88;86.42;101639.31;5052949;28;20021;-80
2021/11/12 02:01:18;;;;;;;9.77;1.65;;;;;;;8.64;86.78;101656.22;5044709;28;20064;-81
2021/11/12 02:03:43;;;;;;;11.57;1.42;;;;;;;8.54;87.37;101651.00;5057051;28;20239;-81
2021/11/12 02:06:11;;;;;;;9.27;1.70;;;;;;;8.46;87.21;101645.63;5054494;28;20060;-80
2021/11/12 02:08:37;;;;;;;10.13;1.40;;;;;;;8.38;87.79;101641.09;5058802;28;20091;-80
2021/11/12 02:11:02;;;;;;;12.25;1.73;;;;;;;8.27;87.74;101633.31;5059472;28;20025;-80
2021/11/12 02:13:28;;;;;;;13.60;1.45;;;;;;;8.24;87.43;101618.41;5056111;28;20044;-82
2021/11/12 02:15:53;;;;;;;13.25;1.52;;;;;;;8.18;88.04;101602.16;5041645;28;20036;-80
2021/11/12 02:18:30;;;;;;;10.10;1.30;;;;;;;8.26;88.35;101610.19;5064842;28;20159;-81
2021/11/12 02:21:02;;;;;;;18.05;2.40;;;;;;;8.29;87.97;101609.03;5058200;28;20493;-80
2021/11/12 02:23:55;;;;;;;12.52;1.50;;;;;;;8.26;88.43;101617.41;5062646;28;20029;-81
2021/11/12 02:26:23;;;;;;;8.55;1.23;;;;;;;8.11;88.03;101598.41;5062590;28;20041;-81
2021/11/12 02:28:55;;;;;;;15.10;1.90;;;;;;;8.04;88.52;101606.25;5062260;28;20040;-82
2021/11/12 02:31:27;;;;;;;11.05;1.20;;;;;;;7.92;88.48;101603.06;5063614;28;20044;-81
2021/11/12 02:33:54;;;;;;;10.68;1.50;;;;;;;7.81;88.81;101608.69;5064617;28;20020;-81
2021/11/12 02:36:20;;;;;;;9.63;1.50;;;;;;;7.65;89.01;101601.44;5041784;28;20053;-81
2021/11/12 02:38:51;;;;;;;13.10;2.40;;;;;;;7.75;89.15;101631.63;5062526;28;20040;-81
2021/11/12 02:41:17;;;;;;;16.42;1.85;;;;;;;7.73;89.65;101635.47;5065607;28;20025;-81
2021/11/12 02:43:46;;;;;;;9.48;1.40;;;;;;;7.69;89.45;101634.94;5065994;28;20447;-81
2021/11/12 02:46:14;;;;;;;9.27;1.70;;;;;;;7.63;89.86;101629.38;5065562;28;20094;-80
2021/11/12 02:48:42;;;;;;;10.88;1.60;;;;;;;7.60;89.58;101635.91;5058594;28;20455;-81
2021/11/12 02:51:11;;;;;;;10.98;1.70;;;;;;;7.35;90.09;101594.78;5051341;28;20021;-81
2021/11/12 02:53:37;;;;;;;13.10;1.30;;;;;;;7.48;90.09;101635.34;5062253;28;20049;-81
2021/11/12 02:56:07;;;;;;;14.18;1.73;;;;;;;7.43;90.04;101634.97;5020007;28;20366;-80
2021/11/12 02:58:34;;;;;;;12.57;1.40;;;;;;;7.29;90.32;101632.88;5067796;28;20029;-81
2021/11/12 03:01:01;;;;;;;11.68;2.03;;;;;;;7.30;90.70;101639.91;5044377;28;20033;-81
2021/11/12 03:03:28;;;;;;;11.30;1.55;;;;;;;7.16;90.76;101641.31;5056167;28;20029;-79
2021/11/12 03:05:54;;;;;;;17.17;1.60;;;;;;;7.05;90.98;101649.56;5054320;28;20120;-81
2021/11/12 03:08:19;;;;;;;7.25;1.00;;;;;;;6.91;90.90;101647.47;5058940;28;20406;-81
2021/11/12 03:10:45;;;;;;;7.70;1.08;;;;;;;6.76;91.43;101641.84;5057529;28;20021;-80
2021/11/12 03:13:10;;;;;;;7.72;1.10;;;;;;;6.68;91.87;101647.94;5058024;28;20339;-81
2021/11/12 03:15:36;;;;;;;11.02;1.30;;;;;;;6.58;92.06;101642.66;5058630;28;20025;-80
2021/11/12 03:18:03;;;;;;;10.13;1.20;;;;;;;6.58;92.13;101656.03;5091343;28;20420;-80
2021/11/12 03:20:30;;;;;;;8.40;1.48;;;;;;;6.54;92.16;101654.66;5059537;28;20045;-81
2021/11/12 03:23:05;;;;;;;15.32;1.42;;;;;;;6.52;92.39;101648.63;5042934;28;20057;-80
2021/11/12 05:46:14;;;;;;;9.02;1.23;;;;;;;5.46;99.90;101579.72;5065507;28;20032;-82
2021/11/12 05:56:37;;;;;;;10.90;1.40;;;;;;;4.98;100.00;101578.88;5071276;28;20125;-80
2021/11/12 05:59:03;;;;;;;10.93;1.67;;;;;;;5.00;100.00;101584.94;5070013;28;20037;-81
2021/11/12 06:01:31;;;;;;;11.13;1.73;;;;;;;5.24;100.00;101588.94;5068162;28;20033;-80
2021/11/12 06:03:57;;;;;;;13.52;1.75;;;;;;;5.56;100.00;101589.41;5060974;28;20534;-81
2021/11/12 06:06:22;;;;;;;16.92;2.03;;;;;;;5.65;100.00;101585.81;5063817;28;20025;-81
2021/11/12 06:08:48;;;;;;;12.85;2.38;;;;;;;5.70;100.00;101589.91;5060245;28;20031;-81
2021/11/12 06:11:13;;;;;;;12.43;1.70;;;;;;;5.72;99.87;101591.41;5060854;28;20092;-81
2021/11/12 06:13:38;;;;;;;11.68;1.88;;;;;;;5.77;100.00;101602.50;5062504;28;20033;-80
2021/11/12 06:16:04;;;;;;;15.63;2.40;;;;;;;5.82;100.00;101599.38;5053597;28;20081;-81
2021/11/12 06:18:29;;;;;;;20.25;1.95;;;;;;;5.71;100.00;101570.19;5047352;28;20447;-80
2021/11/12 06:20:55;;;;;;;15.35;1.88;;;;;;;5.89;100.00;101595.09;5047407;28;20045;-81
2021/11/12 06:23:21;;;;;;;19.95;2.67;;;;;;;5.75;100.00;101571.56;5054228;28;20080;-83
2021/11/12 06:25:46;;;;;;;12.57;2.20;;;;;;;5.85;100.00;101597.25;5061728;28;20492;-80
2021/11/12 06:28:12;;;;;;;16.48;2.20;;;;;;;5.89;100.00;101601.31;5049238;28;20029;-81
2021/11/12 06:30:37;;;;;;;13.85;2.30;;;;;;;5.89;100.00;101603.13;5050418;28;20021;-81
2021/11/12 06:33:03;;;;;;;11.88;2.28;;;;;;;5.42;100.00;101604.03;5047072;28;20060;-81
2021/11/12 06:35:28;;;;;;;18.10;2.50;;;;;;;5.23;100.00;101614.78;5048104;28;20079;-81
2021/11/12 06:37:55;;;;;;;17.17;2.38;;;;;;;5.53;100.00;101615.50;5048968;28;20382;-80
2021/11/12 06:40:21;;;;;;;13.77;2.13;;;;;;;5.63;100.00;101611.84;5055379;28;20088;-81
2021/11/12 06:43:18;;;;;;;15.80;1.90;;;;;;;5.52;100.00;101620.00;5053603;28;20029;-80
2021/11/12 06:51:14;;;;;;;13.23;1.85;;;;;;;5.44;100.00;101619.91;5053365;28;20044;-81
2021/11/12 06:53:40;;;;;;;11.85;2.47;;;;;;;5.42;100.00;101629.88;5062651;28;20025;-81
2021/11/12 06:56:06;;;;;;;22.85;2.13;;;;;;;5.08;100.00;101570.88;5060856;28;20059;-81
2021/11/12 06:58:32;;;;;;;10.02;1.98;;;;;;;5.35;100.00;101629.63;5062621;28;20332;-81
2021/11/12 07:00:57;;;;;;;18.33;2.13;;;;;;;5.46;100.00;101641.94;5060667;28;20037;-81
2021/11/12 07:03:26;;;;;;;17.13;2.05;;;;;;;5.48;100.00;101653.34;5058316;28;20099;-81
2021/11/12 07:05:51;;;;;;;10.52;1.70;;;;;;;5.47;100.00;101654.31;5057642;28;20033;-82
2021/11/12 07:08:17;;;;;;;9.63;1.70;;;;;;;5.39;100.00;101647.03;5061448;28;20067;-81
2021/11/12 07:10:44;;;;;;;14.35;2.00;;;;;;;5.45;100.00;101664.28;5060310;28;20017;-81
2021/11/12 07:13:09;;;;;;;13.60;2.20;;;;;;;5.25;100.00;101631.47;5066477;28;20085;-81
2021/11/12 07:15:35;;;;;;;18.40;2.10;;;;;;;5.47;100.00;101665.00;5066826;28;20029;-82
2021/11/12 07:18:00;;;;;;;17.38;1.95;;;;;;;5.39;100.00;101638.19;5090802;28;20022;-81
2021/11/12 07:20:26;;;;;;;14.57;1.88;;;;;;;5.69;100.00;101668.28;5066088;28;20045;-82
2021/11/12 07:22:52;;;;;;;13.38;1.95;;;;;;;5.74;100.00;101677.56;5071711;28;20025;-81
2021/11/12 07:25:17;;;;;;;18.75;2.05;;;;;;;5.80;100.00;101676.16;5072836;28;20020;-81
2021/11/12 07:27:43;;;;;;;11.50;2.25;;;;;;;5.84;100.00;101677.53;5063176;28;20047;-81
2021/11/12 07:30:14;;;;;;;15.98;2.03;;;;;;;5.82;100.00;101664.31;5095907;28;20052;-80
2021/11/12 07:32:42;;;;;;;14.75;2.00;;;;;;;5.91;100.00;101677.78;5068241;28;20024;-81
2021/11/12 07:35:08;;;;;;;10.38;1.65;;;;;;;5.84;100.00;101661.50;5065193;28;20033;-80
2021/11/12 07:37:33;;;;;;;13.27;1.67;;;;;;;5.97;100.00;101678.06;5063362;28;20479;-80
2021/11/12 07:40:00;;;;;;;13.60;1.98;;;;;;;6.02;100.00;101674.94;5055089;28;20033;-81
2021/11/12 07:47:18;;;;;;;18.75;2.20;;;;;;;6.29;100.00;101692.78;5060272;28;20059;-81
2021/11/12 07:49:46;;;;;;;16.65;2.28;;;;;;;6.30;100.00;101689.16;5059581;28;20029;-81
2021/11/12 07:52:13;;;;;;;19.20;2.28;;;;;;;6.38;100.00;101694.56;5061038;28;20099;-81
2021/11/12 07:54:40;;;;;;;16.73;2.20;;;;;;;6.44;100.00;101707.34;5065611;28;20025;-81
2021/11/12 07:57:07;;;;;;;18.92;2.63;;;;;;;6.48;100.00;101703.38;5068214;28;20021;-81
2021/11/12 07:59:33;;;;;;;20.65;2.38;;;;;;;6.50;100.00;101709.44;5064512;28;20024;-80
2021/11/12 08:01:59;;;;;;;20.35;2.58;;;;;;;6.43;100.00;101692.31;5068469;28;20017;-83
2021/11/12 08:04:24;;;;;;;16.58;2.63;;;;;;;6.58;100.00;101708.66;5066871;28;20041;-81
2021/11/12 08:06:53;;;;;;;13.82;2.33;;;;;;;6.54;100.00;101697.44;5100420;28;20033;-81
2021/11/12 08:09:21;;;;;;;20.55;2.60;;;;;;;6.68;100.00;101712.13;5060219;28;20111;-81
2021/11/12 08:11:53;;;;;;;22.38;2.60;;;;;;;6.73;100.00;101717.88;5065714;28;20026;-80
2021/11/12 08:14:37;;;;;;;21.70;2.70;;;;;;;6.78;100.00;101717.41;5058978;28;20055;-81
2021/11/12 08:22:09;;;;;;;27.60;3.17;;;;;;;7.12;100.00;101706.88;5077437;28;20028;-82
2021/11/12 08:24:55;;;;;;;21.08;2.33;;;;;;;7.18;100.00;101695.50;5073873;28;20023;-82
2021/11/12 08:27:52;;;;;;;24.60;2.83;;;;;;;7.28;100.00;101690.94;5066104;28;20098;-84
2021/11/12 08:45:18;;;;;;;26.63;2.80;;;;;;;7.95;100.00;101631.38;5080629;28;20044;-83
2021/11/12 08:47:50;;;;;;;21.90;2.80;;;;;;;8.52;100.00;101701.31;5073483;28;20030;-82
2021/11/12 08:50:18;;;;;;;27.48;2.67;;;;;;;8.60;100.00;101703.16;5069036;28;20017;-82
2021/11/12 08:52:52;;;;;;;26.33;2.90;;;;;;;8.63;100.00;101702.84;5044174;28;20091;-83
2021/11/12 08:55:25;;;;;;;23.50;2.75;;;;;;;8.63;100.00;101687.56;5072601;28;20032;-80
2021/11/12 08:57:51;;;;;;;25.75;3.50;;;;;;;8.80;100.00;101704.53;5069528;28;20051;-83
2021/11/12 09:00:16;;;;;;;20.75;2.80;;;;;;;8.86;100.00;101703.03;5070048;28;20033;-82
2021/11/12 09:02:42;;;;;;;25.70;3.33;;;;;;;8.91;100.00;101700.72;5080550;28;20029;-82
2021/11/12 09:05:08;;;;;;;23.52;3.05;;;;;;;8.93;100.00;101699.53;5067347;28;20021;-81
2021/11/12 09:07:34;;;;;;;29.20;3.70;;;;;;;8.92;100.00;101697.03;5067981;28;20024;-81
2021/11/12 09:10:02;;;;;;;24.55;3.30;;;;;;;8.93;100.00;101696.84;5069150;28;20032;-82
2021/11/12 09:12:29;;;;;;;22.38;3.83;;;;;;;9.10;100.00;101712.94;5061033;28;20035;-81
2021/11/12 09:14:57;;;;;;;25.52;2.80;;;;;;;9.12;100.00;101711.78;5059637;28;20025;-81
2021/11/12 09:17:27;;;;;;;32.03;3.50;;;;;;;9.05;100.00;101693.84;5062296;28;20336;-81
2021/11/12 09:19:55;;;;;;;25.08;2.92;;;;;;;9.23;100.00;101713.28;5062941;28;20037;-81
2021/11/12 09:22:22;;;;;;;27.67;3.13;;;;;;;9.26;100.00;101714.81;5063571;28;20053;-81
2021/11/12 09:24:48;;;;;;;29.02;3.03;;;;;;;9.22;100.00;101721.53;5064280;28;20025;-82
2021/11/12 09:27:16;;;;;;;29.58;3.58;;;;;;;9.17;100.00;101719.34;5067948;28;20053;-82
2021/11/12 09:29:42;;;;;;;26.50;3.10;;;;;;;9.13;100.00;101720.69;5059293;28;20041;-82
2021/11/12 09:32:09;;;;;;;21.05;3.45;;;;;;;9.16;100.00;101721.19;5055485;28;20021;-82
2021/11/12 09:34:36;;;;;;;28.17;2.95;;;;;;;9.14;100.00;101706.28;5064405;28;20160;-81
2021/11/12 09:37:03;;;;;;;24.70;3.45;;;;;;;9.18;100.00;101712.97;5064362;28;20020;-82
2021/11/12 09:39:29;;;;;;;23.33;3.00;;;;;;;9.14;100.00;101703.59;5067260;28;20032;-81
2021/11/12 09:41:54;;;;;;;20.17;2.45;;;;;;;9.10;100.00;101711.09;5049563;28;20029;-82
2021/11/12 09:44:20;;;;;;;15.65;2.40;;;;;;;9.14;100.00;101711.63;5069261;28;20039;-82
2021/11/12 09:46:48;;;;;;;20.70;2.92;;;;;;;9.17;100.00;101711.28;5070365;28;20093;-83
2021/11/12 09:49:14;;;;;;;23.15;2.88;;;;;;;9.19;100.00;101720.00;5072420;28;20029;-82
2021/11/12 09:51:40;;;;;;;22.85;2.80;;;;;;;9.12;100.00;101702.91;5064375;28;20029;-82
2021/11/12 09:54:05;;;;;;;23.05;2.90;;;;;;;9.07;100.00;101694.50;5072625;28;20035;-82
2021/11/12 09:56:32;;;;;;;22.27;3.35;;;;;;;9.12;100.00;101697.53;5065278;28;20053;-82
2021/11/12 09:58:58;;;;;;;24.58;2.72;;;;;;;9.12;100.00;101702.91;5060541;28;20032;-82
2021/11/12 10:01:28;;;;;;;20.85;2.63;;;;;;;9.17;100.00;101708.59;5056562;28;20032;-81
2021/11/12 10:03:54;;;;;;;15.48;2.40;;;;;;;9.13;100.00;101688.47;5053226;28;20056;-82
2021/11/12 10:06:27;;;;;;;21.92;3.60;;;;;;;9.08;100.00;101674.72;5060101;28;20449;-81
2021/11/12 10:08:54;;;;;;;25.88;2.92;;;;;;;9.31;100.00;101691.81;5062804;28;20478;-81
2021/11/12 10:11:33;;;;;;;18.52;2.78;;;;;;;9.33;100.00;101668.31;5054208;28;20036;-81
2021/11/12 10:14:11;;;;;;;24.42;3.25;;;;;;;9.48;99.65;101681.06;5060777;28;20032;-80
2021/11/12 10:16:37;;;;;;;29.80;3.05;;;;;;;9.48;99.52;101681.91;5060240;28;20020;-80
2021/11/12 10:19:17;;;;;;;26.50;3.28;;;;;;;9.62;98.83;101693.78;5066746;28;20055;-82
2021/11/12 10:21:43;;;;;;;21.73;2.95;;;;;;;9.64;98.65;101695.31;5054585;28;20463;-80
2021/11/12 10:24:16;;;;;;;16.80;2.67;;;;;;;9.69;98.78;101694.78;5052812;28;20029;-81
2021/11/12 10:26:44;;;;;;;31.45;3.95;;;;;;;9.65;98.74;101688.91;5067057;28;20132;-81
2021/11/12 10:29:13;;;;;;;15.23;2.17;;;;;;;9.57;98.42;101680.00;5063062;28;20033;-81
2021/11/12 10:31:45;;;;;;;20.83;3.15;;;;;;;9.67;98.68;101691.44;5060960;28;20031;-81
2021/11/12 10:34:28;;;;;;;22.17;3.00;;;;;;;9.70;98.29;101691.09;5059359;28;20336;-81
2021/11/12 10:36:54;;;;;;;22.73;3.17;;;;;;;9.77;97.58;101691.25;5055588;28;20063;-81
2021/11/12 10:39:34;;;;;;;26.15;3.17;;;;;;;9.77;97.86;101684.03;5059176;28;20439;-81
2021/11/12 10:42:04;;;;;;;16.38;2.50;;;;;;;9.83;97.74;101691.41;5057012;28;20124;-80
2021/11/12 10:44:33;;;;;;;26.30;3.00;;;;;;;9.91;96.74;101695.06;5049067;28;20018;-81
2021/11/12 10:47:03;;;;;;;22.13;2.80;;;;;;;9.99;96.93;101686.97;5038854;28;20041;-81
2021/11/12 10:49:32;;;;;;;20.15;2.75;;;;;;;10.02;96.26;101684.75;5053318;28;20463;-81
2021/11/12 10:52:08;;;;;;;19.67;2.92;;;;;;;10.13;95.73;101675.47;5056168;28;20028;-80
2021/11/12 10:55:01;;;;;;;20.58;3.03;;;;;;;10.18;95.21;101673.09;5057644;28;20098;-80
2021/11/12 10:57:57;;;;;;;19.75;2.35;;;;;;;10.28;95.24;101679.13;5055023;28;20032;-82
2021/11/12 11:20:07;;;;;;;20.95;2.97;;;;;;;10.62;91.88;101667.16;4968947;28;20054;-79
2021/11/12 11:22:55;;;;;;;22.05;3.08;;;;;;;10.54;91.74;101648.41;4990046;28;20970;-81
2021/11/12 11:25:23;;;;;;;21.38;2.97;;;;;;;10.40;91.40;101639.25;4992974;28;20042;-80
2021/11/12 11:27:49;;;;;;;20.67;3.72;;;;;;;10.55;91.33;101663.53;4992395;28;20022;-79
2021/11/12 11:30:15;;;;;;;15.25;2.45;;;;;;;10.54;91.65;101667.22;4989326;28;20092;-82
2021/11/12 11:32:46;;;;;;;19.38;2.65;;;;;;;10.55;90.53;101672.44;4994608;28;20114;-81
2021/11/12 11:35:15;;;;;;;17.08;2.75;;;;;;;10.41;90.62;101646.28;4996605;28;20038;-80
2021/11/12 11:37:43;;;;;;;17.27;2.45;;;;;;;10.54;90.32;101673.44;5001098;28;20085;-81
2021/11/12 11:40:11;;;;;;;15.15;2.50;;;;;;;10.55;89.63;101664.34;4994466;28;20026;-80
2021/11/12 11:42:40;;;;;;;20.00;3.03;;;;;;;10.46;89.51;101653.81;5002806;28;20085;-80
2021/11/12 11:45:06;;;;;;;18.40;2.63;;;;;;;10.56;89.09;101675.94;5005383;28;20471;-80
2021/11/12 11:47:33;;;;;;;17.02;2.58;;;;;;;10.47;88.57;101663.59;5005967;28;20030;-81
2021/11/12 11:49:58;;;;;;;21.63;2.70;;;;;;;10.54;88.61;101678.00;4995305;28;20049;-80
2021/11/12 11:52:27;;;;;;;20.52;3.00;;;;;;;10.53;88.47;101682.56;4998001;28;20776;-81
2021/11/12 11:54:54;;;;;;;22.52;3.28;;;;;;;10.55;88.78;101674.28;5009370;28;20064;-83
2021/11/12 11:57:24;;;;;;;17.98;3.03;;;;;;;10.62;88.85;101674.41;5014307;28;20026;-84
2021/11/12 12:00:21;;;;;;;18.38;2.78;;;;;;;10.63;88.97;101673.38;5013115;28;20050;-83
2021/11/12 12:02:47;;;;;;;21.40;2.90;;;;;;;10.61;88.90;101667.38;5012946;28;20034;-84
2021/11/12 12:05:14;;;;;;;17.83;2.72;;;;;;;10.66;88.93;101664.97;5011452;28;20132;-82
2021/11/12 12:07:52;;;;;;;22.83;3.15;;;;;;;10.66;89.31;101652.34;5010613;28;20034;-82
2021/11/12 12:10:26;;;;;;;26.63;3.55;;;;;;;10.52;89.50;101623.50;5016186;28;20026;-82
2021/11/12 12:13:03;;;;;;;16.60;2.80;;;;;;;10.68;89.24;101644.09;5007512;28;20357;-82
2021/11/12 12:15:35;;;;;;;24.33;3.15;;;;;;;10.60;89.51;101626.16;5006472;28;20084;-82
2021/11/12 12:18:20;;;;;;;20.08;2.80;;;;;;;10.69;90.33;101637.69;5005886;28;20034;-82
2021/11/12 12:21:21;;;;;;;25.35;3.53;;;;;;;10.56;89.91;101622.13;5008834;28;20070;-83
2021/11/12 12:35:37;;;;;;;14.80;2.75;;;;;;;10.36;90.49;101594.84;5009050;28;20138;-82
2021/11/12 13:20:58;;;;;;;19.98;2.80;;;;;;;10.22;92.96;101587.53;5001940;28;20045;-82
2021/11/12 13:26:09;;;;;;;24.77;3.28;;;;;;;10.26;92.40;101589.69;5002907;28;20050;-81
2021/11/12 13:28:41;;;;;;;22.50;3.20;;;;;;;10.18;93.41;101584.34;5000582;28;20034;-81
2021/11/12 13:31:16;;;;;;;22.08;3.53;;;;;;;10.15;93.25;101567.72;4991739;28;20121;-81
2021/11/12 13:34:07;;;;;;;26.75;3.58;;;;;;;10.20;93.14;101576.09;4986268;28;20042;-81
2021/11/12 13:36:37;;;;;;;25.23;3.40;;;;;;;10.12;93.38;101566.22;4984099;28;20022;-81
2021/11/12 13:39:06;;;;;;;23.83;3.88;;;;;;;10.10;93.66;101562.91;4984657;28;20050;-81
2021/11/12 13:41:34;;;;;;;23.88;3.63;;;;;;;10.02;94.14;101552.19;4998373;28;20023;-82
2021/11/12 13:44:05;;;;;;;32.30;3.72;;;;;;;10.02;93.03;101538.72;4986420;28;20027;-82
2021/11/12 13:46:45;;;;;;;24.08;3.42;;;;;;;10.00;93.50;101556.88;5004213;28;20034;-83
2021/11/12 13:49:22;;;;;;;22.90;3.95;;;;;;;9.91;93.61;101539.97;5005758;28;20026;-83
2021/11/12 13:51:48;;;;;;;27.48;3.55;;;;;;;9.87;93.62;101530.59;5004948;28;20057;-84
2021/11/12 13:54:13;;;;;;;33.15;3.92;;;;;;;9.91;92.65;101547.22;5006493;28;20038;-82
2021/11/12 13:56:38;;;;;;;17.30;2.70;;;;;;;9.93;92.84;101539.78;5004203;28;20030;-83
2021/11/12 13:59:10;;;;;;;24.83;3.90;;;;;;;9.76;92.27;101518.38;5001530;28;20026;-82
2021/11/12 14:01:35;;;;;;;26.63;3.47;;;;;;;9.89;93.02;101544.69;5003879;28;20145;-82
2021/11/12 14:04:02;;;;;;;23.08;3.45;;;;;;;9.86;92.91;101547.72;5003426;28;20053;-82
2021/11/12 14:06:38;;;;;;;23.45;3.70;;;;;;;9.83;92.47;101545.38;5003815;28;20026;-81
2021/11/12 14:09:04;;;;;;;26.42;3.90;;;;;;;9.82;93.16;101549.94;5003279;28;20690;-81
2021/11/12 14:11:32;;;;;;;23.98;3.35;;;;;;;9.85;92.47;101556.81;5003966;28;20045;-81
2021/11/12 14:14:05;;;;;;;28.13;3.40;;;;;;;9.74;93.00;101546.47;5003556;28;20044;-82
2021/11/12 14:16:46;;;;;;;22.67;3.20;;;;;;;9.76;93.13;101545.25;5007351;28;20022;-82
2021/11/12 14:22:03;;;;;;;29.65;4.13;;;;;;;9.60;93.69;101546.19;5004140;28;20054;-82
2021/11/12 14:46:42;;;;;;;26.48;4.13;;;;;;;9.09;95.05;101499.19;5009760;28;20046;-83
2021/11/12 14:54:41;;;;;;;34.38;10.18;;;;;;;9.10;95.69;101495.47;5009612;28;20034;-81
2021/11/12 14:59:41;;;;;;;61.35;24.13;;;;;;;9.07;96.18;101477.03;5011488;28;20045;-84
2021/11/12 15:02:09;;;;;;;26.42;5.78;;;;;;;8.99;96.28;101474.38;5016775;28;20022;-85
2021/11/12 15:04:36;;;;;;;21.00;4.03;;;;;;;8.97;96.21;101462.97;5020120;28;20022;-85
2021/11/12 15:07:03;;;;;;;40.35;12.63;;;;;;;9.03;96.03;101478.41;5057452;23;20070;-86
2021/11/12 15:09:31;;;;;;;51.53;19.63;;;;;;;9.01;96.57;101470.53;5015039;28;20023;-83
2021/11/12 15:11:59;;;;;;;46.63;21.10;;;;;;;8.79;96.63;101437.19;5017365;28;20028;-83
2021/11/12 15:14:29;;;;;;;70.10;31.27;;;;;;;8.97;96.52;101463.81;5014256;28;20070;-83
2021/11/12 15:16:56;;;;;;;40.83;12.77;;;;;;;8.98;96.66;101459.31;5018166;28;20030;-84
2021/11/12 15:19:23;;;;;;;37.40;11.90;;;;;;;8.98;96.79;101462.00;5016601;28;20085;-80
2021/11/12 15:24:30;;;;;;;28.85;7.30;;;;;;;8.98;96.90;101468.19;5012165;28;20087;-84
2021/11/12 15:27:09;;;;;;;31.17;8.85;;;;;;;8.92;97.24;101469.72;5014626;28;20058;-83
2021/11/12 15:29:41;;;;;;;28.17;6.05;;;;;;;8.94;97.17;101474.91;5017888;28;20014;-85
2021/11/12 15:32:12;;;;;;;47.72;20.70;;;;;;;8.90;97.21;101487.81;5018488;28;20023;-84
2021/11/12 15:34:41;;;;;;;24.40;5.28;;;;;;;8.89;97.44;101471.91;5012169;28;20026;-84
2021/11/12 15:37:23;;;;;;;26.38;4.93;;;;;;;8.95;97.00;101479.28;5020782;28;20061;-83
2021/11/12 15:44:45;;;;;;;19.25;2.80;;;;;;;8.94;96.80;101464.19;5018278;28;20038;-83
2021/11/12 15:49:45;;;;;;;26.98;3.10;;;;;;;8.92;97.46;101458.97;5012272;28;20045;-82
2021/11/12 16:26:31;;;;;;;26.15;5.25;;;;;;;8.83;96.74;101451.09;5007560;28;20049;-82
2021/11/12 16:31:23;;;;;;;31.40;6.35;;;;;;;8.86;96.57;101462.34;5010353;28;20055;-82
2021/11/12 16:33:51;;;;;;;23.08;5.38;;;;;;;8.84;96.88;101464.38;5013690;28;20090;-82
2021/11/12 16:36:16;;;;;;;20.83;4.18;;;;;;;8.84;96.88;101456.31;4997304;28;20056;-83
2021/11/12 16:38:42;;;;;;;17.65;3.17;;;;;;;8.81;96.81;101450.47;5012657;28;20038;-83
2021/11/12 16:46:30;;;;;;;20.73;5.47;;;;;;;8.74;96.84;101442.25;5014400;28;20017;-81
2021/11/12 16:49:18;;;;;;;29.60;4.68;;;;;;;8.80;97.14;101457.66;5017988;28;20014;-85
2021/11/12 16:59:28;;;;;;;25.10;3.67;;;;;;;8.77;96.71;101455.31;5039869;28;20006;-85
2021/11/12 17:47:33;;;;;;;13.75;2.88;;;;;;;8.62;96.98;101422.16;5035963;28;20052;-82
2021/11/12 18:03:40;;;;;;;21.38;3.08;;;;;;;8.60;97.30;101386.59;5011298;28;20125;-79
2021/11/12 18:06:15;;;;;;;16.95;2.95;;;;;;;8.67;97.03;101403.69;5015146;28;20026;-78
2021/11/12 18:17:15;;;;;;;14.05;3.03;;;;;;;8.54;97.17;101392.66;5016893;28;20045;-80
2021/11/12 21:45:41;;;;;;;11.95;2.55;;;;;;;8.15;97.79;101407.59;5017171;28;20061;-79
2021/11/12 21:48:06;;;;;;;16.00;3.08;;;;;;;8.31;98.14;101419.31;4999367;28;20497;-79
2021/11/12 21:50:33;;;;;;;13.25;2.45;;;;;;;8.24;97.84;101424.50;5014437;28;20072;-79
2021/11/12 21:53:00;;;;;;;12.00;3.20;;;;;;;8.20;98.00;101417.81;5013487;28;20458;-80
2021/11/12 21:55:26;;;;;;;13.95;2.65;;;;;;;8.11;98.20;101410.78;5014464;28;20117;-80
2021/11/12 21:57:51;;;;;;;14.18;2.83;;;;;;;8.15;97.88;101396.06;4996321;28;20125;-79
2021/11/12 22:00:18;;;;;;;13.75;2.33;;;;;;;8.05;98.49;101411.47;5014630;28;20037;-79
2021/11/12 22:02:45;;;;;;;16.08;2.88;;;;;;;8.18;97.56;101412.63;5014396;28;20076;-79
2021/11/12 22:05:11;;;;;;;8.25;2.00;;;;;;;7.93;98.51;101411.78;4997861;28;20032;-78
2021/11/12 22:07:37;;;;;;;13.45;2.45;;;;;;;8.07;98.42;101415.63;5018621;28;20025;-79
2021/11/12 22:10:05;;;;;;;8.90;2.70;;;;;;;8.16;97.64;101397.72;5014829;28;20128;-80
2021/11/12 22:12:30;;;;;;;11.73;2.47;;;;;;;8.05;97.57;101390.03;5024157;28;20025;-80
2021/11/12 22:14:56;;;;;;;15.32;3.15;;;;;;;8.04;98.06;101407.94;5017692;28;20033;-80
2021/11/12 22:17:21;;;;;;;8.77;2.50;;;;;;;8.15;97.23;101404.94;5014526;28;20394;-80
2021/11/12 22:19:47;;;;;;;18.13;3.17;;;;;;;8.00;98.33;101393.19;5013728;28;20121;-81
2021/11/12 22:22:12;;;;;;;7.40;2.40;;;;;;;7.93;97.75;101385.00;5016071;28;20044;-80
2021/11/12 22:24:38;;;;;;;11.75;3.10;;;;;;;8.10;97.97;101414.47;5016536;28;20033;-80